Greenville, Kentucky
Current Conditions -  °F | °C
As of 7:55 PM on Saturday 20 Dec 2014 (Local Time) from K2I0 Reporting Station
Clear Clear  
Wind Chill: 31°   Ceiling: Unl
Heat Index: 31°   Visibility: 10mi
Dew Point: 26°   Wind: 0mph
Humidity: 84%   Direction: NA
Pressure: 30.29"   Gusts: NA
Location:  37.2°N, 87.18°W
Report Text: K2I0 210155Z AUTO 00000KT 10SM CLR M01/M03 A3029 RMK AO2 T10071031
Loading
Personal Weather Stations






























Interactive Weather Map New forecast layout! Learn more

10-Day Weather Forecast

Advertisements
Track Severe Weather on mobile